sensor_id;sensor_type;location;lat;lon;timestamp;pressure;altitude;pressure_sealevel;temperature;humidity
26807;BME280;14380;49.910;6.792;2023-08-24T00:01:54;99010.06;;;19.83;100.00
26807;BME280;14380;49.910;6.792;2023-08-24T00:04:21;98995.50;;;19.56;100.00
26807;BME280;14380;49.910;6.792;2023-08-24T00:06:48;99003.38;;;19.48;100.00
26807;BME280;14380;49.910;6.792;2023-08-24T00:09:14;98998.47;;;19.73;100.00
26807;BME280;14380;49.910;6.792;2023-08-24T00:11:41;99008.91;;;19.56;100.00
26807;BME280;14380;49.910;6.792;2023-08-24T00:14:09;99002.13;;;19.52;100.00
26807;BME280;14380;49.910;6.792;2023-08-24T00:16:36;99003.53;;;19.56;100.00
26807;BME280;14380;49.910;6.792;2023-08-24T00:19:02;98997.31;;;19.56;100.00
26807;BME280;14380;49.910;6.792;2023-08-24T00:21:29;99002.56;;;19.57;100.00
26807;BME280;14380;49.910;6.792;2023-08-24T00:23:56;98996.50;;;19.55;100.00
26807;BME280;14380;49.910;6.792;2023-08-24T00:26:23;99008.31;;;19.53;100.00
26807;BME280;14380;49.910;6.792;2023-08-24T00:28:50;99012.91;;;19.41;100.00
26807;BME280;14380;49.910;6.792;2023-08-24T00:31:18;99011.31;;;19.28;100.00
26807;BME280;14380;49.910;6.792;2023-08-24T00:33:45;99008.47;;;19.51;100.00
26807;BME280;14380;49.910;6.792;2023-08-24T00:36:11;99005.63;;;19.53;100.00
26807;BME280;14380;49.910;6.792;2023-08-24T00:38:39;98991.91;;;19.36;100.00
26807;BME280;14380;49.910;6.792;2023-08-24T00:41:05;98987.28;;;19.38;100.00
26807;BME280;14380;49.910;6.792;2023-08-24T00:43:32;98981.88;;;19.28;100.00
26807;BME280;14380;49.910;6.792;2023-08-24T00:46:00;98995.34;;;19.48;100.00
26807;BME280;14380;49.910;6.792;2023-08-24T00:48:30;99001.69;;;19.47;100.00
26807;BME280;14380;49.910;6.792;2023-08-24T00:50:59;98998.13;;;19.46;100.00
26807;BME280;14380;49.910;6.792;2023-08-24T00:53:28;98992.38;;;19.41;100.00
26807;BME280;14380;49.910;6.792;2023-08-24T00:55:56;98990.38;;;19.43;100.00
26807;BME280;14380;49.910;6.792;2023-08-24T00:58:23;98987.75;;;19.53;100.00
26807;BME280;14380;49.910;6.792;2023-08-24T01:00:50;98984.19;;;19.53;100.00
26807;BME280;14380;49.910;6.792;2023-08-24T01:03:18;98993.03;;;19.43;100.00
26807;BME280;14380;49.910;6.792;2023-08-24T01:05:47;98992.38;;;19.41;100.00
26807;BME280;14380;49.910;6.792;2023-08-24T01:08:13;98992.19;;;19.02;100.00
26807;BME280;14380;49.910;6.792;2023-08-24T01:10:48;98989.53;;;19.43;100.00
26807;BME280;14380;49.910;6.792;2023-08-24T01:13:22;98974.44;;;19.42;100.00
26807;BME280;14380;49.910;6.792;2023-08-24T01:15:58;98965.44;;;19.43;100.00
26807;BME280;14380;49.910;6.792;2023-08-24T01:18:29;98959.06;;;19.34;100.00
26807;BME280;14380;49.910;6.792;2023-08-24T01:20:58;98957.44;;;19.12;100.00
26807;BME280;14380;49.910;6.792;2023-08-24T01:23:34;98950.59;;;19.19;100.00
26807;BME280;14380;49.910;6.792;2023-08-24T01:26:10;98945.63;;;18.93;100.00
26807;BME280;14380;49.910;6.792;2023-08-24T01:28:37;98944.28;;;18.99;100.00
26807;BME280;14380;49.910;6.792;2023-08-24T01:31:05;98931.69;;;18.90;100.00
26807;BME280;14380;49.910;6.792;2023-08-24T01:33:33;98931.69;;;19.21;100.00
26807;BME280;14380;49.910;6.792;2023-08-24T01:36:00;98922.53;;;19.23;100.00
26807;BME280;14380;49.910;6.792;2023-08-24T01:38:27;98925.44;;;19.00;100.00
26807;BME280;14380;49.910;6.792;2023-08-24T01:40:59;98931.78;;;18.78;100.00
26807;BME280;14380;49.910;6.792;2023-08-24T01:43:32;98920.38;;;19.07;100.00
26807;BME280;14380;49.910;6.792;2023-08-24T01:46:03;98922.34;;;18.84;100.00
26807;BME280;14380;49.910;6.792;2023-08-24T01:48:31;98927.25;;;18.79;100.00
26807;BME280;14380;49.910;6.792;2023-08-24T01:50:58;98920.09;;;18.79;100.00
26807;BME280;14380;49.910;6.792;2023-08-24T01:53:28;98924.28;;;18.72;100.00
26807;BME280;14380;49.910;6.792;2023-08-24T01:55:55;98908.44;;;18.90;100.00
26807;BME280;14380;49.910;6.792;2023-08-24T01:58:21;98915.16;;;18.75;100.00
26807;BME280;14380;49.910;6.792;2023-08-24T02:00:49;98914.44;;;18.72;100.00
26807;BME280;14380;49.910;6.792;2023-08-24T02:03:16;98908.38;;;18.70;100.00
26807;BME280;14380;49.910;6.792;2023-08-24T02:05:43;98914.50;;;18.92;100.00
26807;BME280;14380;49.910;6.792;2023-08-24T02:08:09;98897.81;;;19.00;100.00
26807;BME280;14380;49.910;6.792;2023-08-24T02:10:37;98892.09;;;18.83;100.00
26807;BME280;14380;49.910;6.792;2023-08-24T02:13:04;98888.38;;;18.96;100.00
26807;BME280;14380;49.910;6.792;2023-08-24T02:15:30;98888.22;;;18.97;100.00
26807;BME280;14380;49.910;6.792;2023-08-24T02:17:58;98884.50;;;18.88;100.00
26807;BME280;14380;49.910;6.792;2023-08-24T02:20:25;98877.38;;;18.99;100.00
26807;BME280;14380;49.910;6.792;2023-08-24T02:22:52;98872.84;;;18.90;100.00
26807;BME280;14380;49.910;6.792;2023-08-24T02:25:18;98880.22;;;19.07;100.00
26807;BME280;14380;49.910;6.792;2023-08-24T02:27:45;98867.00;;;18.75;100.00
26807;BME280;14380;49.910;6.792;2023-08-24T02:30:13;98872.38;;;18.84;100.00
26807;BME280;14380;49.910;6.792;2023-08-24T02:32:40;98866.31;;;18.82;100.00
26807;BME280;14380;49.910;6.792;2023-08-24T02:35:09;98860.16;;;18.92;100.00
26807;BME280;14380;49.910;6.792;2023-08-24T02:37:36;98845.56;;;18.65;100.00
26807;BME280;14380;49.910;6.792;2023-08-24T02:40:03;98848.31;;;18.84;100.00
26807;BME280;14380;49.910;6.792;2023-08-24T02:42:31;98838.88;;;18.90;100.00
26807;BME280;14380;49.910;6.792;2023-08-24T02:44:58;98830.16;;;18.88;100.00
26807;BME280;14380;49.910;6.792;2023-08-24T02:47:24;98830.41;;;18.85;100.00
26807;BME280;14380;49.910;6.792;2023-08-24T02:49:51;98833.72;;;18.98;100.00
26807;BME280;14380;49.910;6.792;2023-08-24T02:52:19;98824.41;;;18.93;100.00
26807;BME280;14380;49.910;6.792;2023-08-24T02:54:45;98816.13;;;18.96;100.00
26807;BME280;14380;49.910;6.792;2023-08-24T02:57:12;98823.75;;;19.00;100.00
26807;BME280;14380;49.910;6.792;2023-08-24T02:59:39;98829.44;;;18.86;100.00
26807;BME280;14380;49.910;6.792;2023-08-24T03:02:08;98825.06;;;18.85;100.00
26807;BME280;14380;49.910;6.792;2023-08-24T03:04:35;98812.47;;;18.97;100.00
26807;BME280;14380;49.910;6.792;2023-08-24T03:07:01;98817.38;;;18.92;100.00
26807;BME280;14380;49.910;6.792;2023-08-24T03:09:29;98811.53;;;18.77;100.00
26807;BME280;14380;49.910;6.792;2023-08-24T03:11:56;98807.19;;;18.76;100.00
26807;BME280;14380;49.910;6.792;2023-08-24T03:14:22;98797.91;;;18.90;100.00
26807;BME280;14380;49.910;6.792;2023-08-24T03:16:49;98797.91;;;18.90;100.00
26807;BME280;14380;49.910;6.792;2023-08-24T03:19:16;98799.72;;;18.89;100.00
26807;BME280;14380;49.910;6.792;2023-08-24T03:21:43;98802.13;;;18.92;100.00
26807;BME280;14380;49.910;6.792;2023-08-24T03:24:09;98805.75;;;18.71;100.00
26807;BME280;14380;49.910;6.792;2023-08-24T03:26:37;98814.91;;;18.79;100.00
26807;BME280;14380;49.910;6.792;2023-08-24T03:29:04;98832.81;;;18.88;100.00
26807;BME280;14380;49.910;6.792;2023-08-24T03:31:30;98835.16;;;19.02;100.00
26807;BME280;14380;49.910;6.792;2023-08-24T03:33:57;98842.47;;;19.00;100.00
26807;BME280;14380;49.910;6.792;2023-08-24T03:36:24;98869.00;;;19.23;100.00
26807;BME280;14380;49.910;6.792;2023-08-24T03:38:50;98887.59;;;19.25;100.00
26807;BME280;14380;49.910;6.792;2023-08-24T03:41:17;98903.78;;;19.23;100.00
26807;BME280;14380;49.910;6.792;2023-08-24T03:43:45;98928.22;;;19.50;100.00
26807;BME280;14380;49.910;6.792;2023-08-24T03:46:11;98954.31;;;19.47;100.00
26807;BME280;14380;49.910;6.792;2023-08-24T03:48:38;98963.31;;;19.46;100.00
26807;BME280;14380;49.910;6.792;2023-08-24T03:51:05;98986.31;;;19.49;100.00
26807;BME280;14380;49.910;6.792;2023-08-24T03:53:31;98996.22;;;19.58;100.00
26807;BME280;14380;49.910;6.792;2023-08-24T03:55:58;98998.91;;;19.58;100.00
26807;BME280;14380;49.910;6.792;2023-08-24T03:58:24;98993.63;;;19.37;100.00
26807;BME280;14380;49.910;6.792;2023-08-24T04:00:52;99003.06;;;19.41;100.00
26807;BME280;14380;49.910;6.792;2023-08-24T04:03:19;99007.16;;;19.45;100.00
26807;BME280;14380;49.910;6.792;2023-08-24T04:05:46;99012.34;;;19.37;100.00
26807;BME280;14380;49.910;6.792;2023-08-24T04:08:12;99019.25;;;19.40;100.00
26807;BME280;14380;49.910;6.792;2023-08-24T04:10:39;99029.13;;;19.39;100.00
26807;BME280;14380;49.910;6.792;2023-08-24T04:13:05;99028.41;;;19.78;100.00
26807;BME280;14380;49.910;6.792;2023-08-24T04:15:32;99013.25;;;19.16;100.00
26807;BME280;14380;49.910;6.792;2023-08-24T04:18:00;98999.44;;;19.21;100.00
26807;BME280;14380;49.910;6.792;2023-08-24T04:20:27;98990.53;;;19.42;100.00
26807;BME280;14380;49.910;6.792;2023-08-24T04:22:54;98995.78;;;19.53;100.00
26807;BME280;14380;49.910;6.792;2023-08-24T04:25:21;98998.97;;;19.37;100.00
26807;BME280;14380;49.910;6.792;2023-08-24T04:27:47;98989.13;;;19.47;100.00
26807;BME280;14380;49.910;6.792;2023-08-24T04:30:14;98995.31;;;19.38;100.00
26807;BME280;14380;49.910;6.792;2023-08-24T04:32:41;98995.53;;;19.25;100.00
26807;BME280;14380;49.910;6.792;2023-08-24T04:35:10;98992.03;;;19.35;100.00
26807;BME280;14380;49.910;6.792;2023-08-24T04:37:36;99001.66;;;19.37;100.00
26807;BME280;14380;49.910;6.792;2023-08-24T04:40:04;99007.59;;;19.51;100.00
26807;BME280;14380;49.910;6.792;2023-08-24T04:42:32;99005.91;;;19.50;100.00
26807;BME280;14380;49.910;6.792;2023-08-24T04:44:59;99008.47;;;19.51;100.00
26807;BME280;14380;49.910;6.792;2023-08-24T04:47:25;99007.84;;;19.38;100.00
26807;BME280;14380;49.910;6.792;2023-08-24T04:49:52;99020.84;;;19.42;100.00
26807;BME280;14380;49.910;6.792;2023-08-24T04:52:20;99027.59;;;19.46;100.00
26807;BME280;14380;49.910;6.792;2023-08-24T04:54:46;99019.25;;;19.40;100.00
26807;BME280;14380;49.910;6.792;2023-08-24T04:57:13;99004.47;;;19.45;100.00
26807;BME280;14380;49.910;6.792;2023-08-24T04:59:39;98985.44;;;19.39;100.00
26807;BME280;14380;49.910;6.792;2023-08-24T05:02:06;98954.81;;;19.31;100.00
26807;BME280;14380;49.910;6.792;2023-08-24T05:04:33;98950.34;;;19.32;100.00
26807;BME280;14380;49.910;6.792;2023-08-24T05:07:00;98968.44;;;19.19;100.00
26807;BME280;14380;49.910;6.792;2023-08-24T05:09:28;98958.56;;;19.09;100.00
26807;BME280;14380;49.910;6.792;2023-08-24T05:11:55;98943.88;;;19.04;100.00
26807;BME280;14380;49.910;6.792;2023-08-24T05:14:21;98939.97;;;19.08;100.00
26807;BME280;14380;49.910;6.792;2023-08-24T05:16:48;98934.53;;;19.19;100.00
26807;BME280;14380;49.910;6.792;2023-08-24T05:19:14;98946.31;;;19.16;100.00
26807;BME280;14380;49.910;6.792;2023-08-24T05:21:41;98947.38;;;19.35;100.00
26807;BME280;14380;49.910;6.792;2023-08-24T05:24:07;98958.66;;;19.39;100.00
26807;BME280;14380;49.910;6.792;2023-08-24T05:26:35;98970.34;;;19.38;100.00
26807;BME280;14380;49.910;6.792;2023-08-24T05:29:01;98986.47;;;19.16;100.00
26807;BME280;14380;49.910;6.792;2023-08-24T05:31:28;98984.41;;;19.20;100.00
26807;BME280;14380;49.910;6.792;2023-08-24T05:33:54;98965.59;;;19.10;100.00
26807;BME280;14380;49.910;6.792;2023-08-24T05:36:21;98957.56;;;19.10;100.00
26807;BME280;14380;49.910;6.792;2023-08-24T05:38:48;98954.56;;;19.35;100.00
26807;BME280;14380;49.910;6.792;2023-08-24T05:41:14;98950.88;;;19.26;100.00
26807;BME280;14380;49.910;6.792;2023-08-24T05:43:42;98955.22;;;19.17;100.00
26807;BME280;14380;49.910;6.792;2023-08-24T05:46:08;98953.81;;;19.23;100.00
26807;BME280;14380;49.910;6.792;2023-08-24T05:48:35;98947.22;;;19.27;100.00
26807;BME280;14380;49.910;6.792;2023-08-24T05:51:02;98940.34;;;19.03;100.00
26807;BME280;14380;49.910;6.792;2023-08-24T05:53:28;98931.53;;;19.22;100.00
26807;BME280;14380;49.910;6.792;2023-08-24T05:55:57;98930.56;;;19.23;100.00
26807;BME280;14380;49.910;6.792;2023-08-24T05:58:24;98928.59;;;19.25;100.00
26807;BME280;14380;49.910;6.792;2023-08-24T06:00:57;98941.06;;;19.05;100.00
26807;BME280;14380;49.910;6.792;2023-08-24T06:03:24;98941.41;;;19.12;100.00
26807;BME280;14380;49.910;6.792;2023-08-24T06:05:51;98961.91;;;19.01;100.00
26807;BME280;14380;49.910;6.792;2023-08-24T06:08:17;98982.28;;;19.24;100.00
26807;BME280;14380;49.910;6.792;2023-08-24T06:10:44;99014.09;;;19.17;100.00
26807;BME280;14380;49.910;6.792;2023-08-24T06:13:10;99012.69;;;19.13;100.00
26807;BME280;14380;49.910;6.792;2023-08-24T06:15:37;99002.84;;;19.23;100.00
26807;BME280;14380;49.910;6.792;2023-08-24T06:18:05;98999.44;;;19.21;100.00
26807;BME280;14380;49.910;6.792;2023-08-24T06:20:32;99001.84;;;19.24;100.00
26807;BME280;14380;49.910;6.792;2023-08-24T06:22:58;98992.44;;;19.20;100.00
26807;BME280;14380;49.910;6.792;2023-08-24T06:25:25;98971.88;;;19.30;100.00
26807;BME280;14380;49.910;6.792;2023-08-24T06:27:51;98919.72;;;19.15;100.00
26807;BME280;14380;49.910;6.792;2023-08-24T06:30:18;98865.63;;;18.90;100.00
26807;BME280;14380;49.910;6.792;2023-08-24T06:32:45;98800.16;;;18.94;100.00
26807;BME280;14380;49.910;6.792;2023-08-24T06:35:13;98772.72;;;18.92;100.00
26807;BME280;14380;49.910;6.792;2023-08-24T06:37:40;98758.16;;;18.65;100.00
26807;BME280;14380;49.910;6.792;2023-08-24T06:40:08;98762.63;;;18.55;100.00
26807;BME280;14380;49.910;6.792;2023-08-24T06:42:34;98746.50;;;18.76;100.00
26807;BME280;14380;49.910;6.792;2023-08-24T06:45:01;98732.34;;;18.45;100.00
26807;BME280;14380;49.910;6.792;2023-08-24T06:47:28;98760.94;;;19.05;100.00
26807;BME280;14380;49.910;6.792;2023-08-24T06:49:54;98760.03;;;18.75;100.00
26807;BME280;14380;49.910;6.792;2023-08-24T06:52:22;98734.81;;;18.87;100.00
26807;BME280;14380;49.910;6.792;2023-08-24T06:54:49;98737.13;;;19.31;100.00
26807;BME280;14380;49.910;6.792;2023-08-24T06:57:21;98742.06;;;19.36;100.00
26807;BME280;14380;49.910;6.792;2023-08-24T06:59:48;98725.59;;;19.40;100.00
26807;BME280;14380;49.910;6.792;2023-08-24T07:02:14;98722.63;;;19.34;100.00
26807;BME280;14380;49.910;6.792;2023-08-24T07:04:43;98732.47;;;19.63;100.00
26807;BME280;14380;49.910;6.792;2023-08-24T07:07:09;98728.09;;;19.52;100.00
26807;BME280;14380;49.910;6.792;2023-08-24T07:09:38;98726.75;;;19.85;100.00
26807;BME280;14380;49.910;6.792;2023-08-24T07:12:05;98723.97;;;19.67;100.00
26807;BME280;14380;49.910;6.792;2023-08-24T07:14:35;98718.41;;;19.98;100.00
26807;BME280;14380;49.910;6.792;2023-08-24T07:17:02;98724.06;;;19.95;100.00
26807;BME280;14380;49.910;6.792;2023-08-24T07:19:28;98731.09;;;20.06;100.00
26807;BME280;14380;49.910;6.792;2023-08-24T07:21:55;98732.88;;;20.15;100.00
26807;BME280;14380;49.910;6.792;2023-08-24T07:24:21;98758.75;;;20.06;100.00
26807;BME280;14380;49.910;6.792;2023-08-24T07:26:52;98738.81;;;20.09;100.00
26807;BME280;14380;49.910;6.792;2023-08-24T07:29:19;98742.72;;;20.25;100.00
26807;BME280;14380;49.910;6.792;2023-08-24T07:31:46;98736.13;;;20.19;100.00
26807;BME280;14380;49.910;6.792;2023-08-24T07:34:12;98738.03;;;20.64;100.00
26807;BME280;14380;49.910;6.792;2023-08-24T07:36:39;98725.13;;;21.32;100.00
26807;BME280;14380;49.910;6.792;2023-08-24T07:39:05;98721.25;;;21.71;100.00
26807;BME280;14380;49.910;6.792;2023-08-24T07:41:32;98693.31;;;22.25;100.00
26807;BME280;14380;49.910;6.792;2023-08-24T07:44:00;98695.88;;;22.35;100.00
26807;BME280;14380;49.910;6.792;2023-08-24T07:46:26;98678.31;;;22.57;100.00
26807;BME280;14380;49.910;6.792;2023-08-24T07:48:53;98679.06;;;23.00;100.00
26807;BME280;14380;49.910;6.792;2023-08-24T07:51:19;98686.59;;;22.64;100.00
26807;BME280;14380;49.910;6.792;2023-08-24T07:53:46;98712.56;;;23.06;100.00
26807;BME280;14380;49.910;6.792;2023-08-24T07:56:14;98698.78;;;23.17;100.00
26807;BME280;14380;49.910;6.792;2023-08-24T07:58:40;98709.25;;;23.37;100.00
26807;BME280;14380;49.910;6.792;2023-08-24T08:01:08;98713.56;;;23.22;100.00
26807;BME280;14380;49.910;6.792;2023-08-24T08:03:35;98707.34;;;22.88;100.00
26807;BME280;14380;49.910;6.792;2023-08-24T08:06:02;98713.06;;;23.10;100.00
26807;BME280;14380;49.910;6.792;2023-08-24T08:08:28;98712.09;;;23.27;100.00
26807;BME280;14380;49.910;6.792;2023-08-24T08:10:58;98718.84;;;23.23;100.00
26807;BME280;14380;49.910;6.792;2023-08-24T08:13:25;98715.31;;;23.48;100.00
26807;BME280;14380;49.910;6.792;2023-08-24T08:15:52;98711.88;;;23.87;100.00
26807;BME280;14380;49.910;6.792;2023-08-24T08:18:20;98701.69;;;24.14;100.00
26807;BME280;14380;49.910;6.792;2023-08-24T08:20:50;98695.25;;;24.31;100.00
26807;BME280;14380;49.910;6.792;2023-08-24T08:23:17;98700.34;;;24.58;100.00
26807;BME280;14380;49.910;6.792;2023-08-24T08:25:43;98708.81;;;24.46;100.00
26807;BME280;14380;49.910;6.792;2023-08-24T08:28:10;98693.41;;;24.55;100.00
26807;BME280;14380;49.910;6.792;2023-08-24T08:30:36;98680.09;;;24.22;100.00
26807;BME280;14380;49.910;6.792;2023-08-24T08:33:03;98680.47;;;24.11;100.00
26807;BME280;14380;49.910;6.792;2023-08-24T08:35:31;98685.56;;;23.97;100.00
26807;BME280;14380;49.910;6.792;2023-08-24T08:37:58;98683.84;;;24.13;100.00
26807;BME280;14380;49.910;6.792;2023-08-24T08:40:25;98687.47;;;24.68;100.00
26807;BME280;14380;49.910;6.792;2023-08-24T08:42:55;98680.13;;;24.85;100.00
26807;BME280;14380;49.910;6.792;2023-08-24T08:45:24;98671.19;;;24.85;100.00
26807;BME280;14380;49.910;6.792;2023-08-24T08:47:53;98673.00;;;24.92;100.00
26807;BME280;14380;49.910;6.792;2023-08-24T08:50:22;98662.31;;;24.76;100.00
26807;BME280;14380;49.910;6.792;2023-08-24T08:52:50;98664.75;;;24.54;100.00
26807;BME280;14380;49.910;6.792;2023-08-24T08:55:17;98670.25;;;24.38;100.00
26807;BME280;14380;49.910;6.792;2023-08-24T08:57:47;98662.72;;;24.56;100.00
26807;BME280;14380;49.910;6.792;2023-08-24T09:00:15;98656.44;;;24.72;100.00
26807;BME280;14380;49.910;6.792;2023-08-24T09:02:44;98660.09;;;25.18;100.00
26807;BME280;14380;49.910;6.792;2023-08-24T09:05:11;98649.72;;;25.53;100.00
26807;BME280;14380;49.910;6.792;2023-08-24T09:07:39;98645.13;;;25.68;100.00
26807;BME280;14380;49.910;6.792;2023-08-24T09:10:08;98645.41;;;25.44;100.00
26807;BME280;14380;49.910;6.792;2023-08-24T09:12:35;98629.19;;;25.59;100.00
26807;BME280;14380;49.910;6.792;2023-08-24T09:15:03;98636.41;;;25.81;100.00
26807;BME280;14380;49.910;6.792;2023-08-24T09:17:30;98641.59;;;25.98;100.00
26807;BME280;14380;49.910;6.792;2023-08-24T09:19:58;98640.84;;;26.19;100.00
26807;BME280;14380;49.910;6.792;2023-08-24T09:22:25;98631.28;;;26.38;100.00
26807;BME280;14380;49.910;6.792;2023-08-24T09:24:52;98625.63;;;26.18;100.00
26807;BME280;14380;49.910;6.792;2023-08-24T09:27:21;98621.53;;;26.59;100.00
26807;BME280;14380;49.910;6.792;2023-08-24T09:29:48;98626.13;;;26.22;100.00
26807;BME280;14380;49.910;6.792;2023-08-24T09:32:21;98626.84;;;26.31;100.00
26807;BME280;14380;49.910;6.792;2023-08-24T09:34:50;98622.56;;;26.58;99.21
26807;BME280;14380;49.910;6.792;2023-08-24T09:37:17;98624.63;;;26.56;100.00
26807;BME280;14380;49.910;6.792;2023-08-24T09:39:45;98627.50;;;26.54;100.00
26807;BME280;14380;49.910;6.792;2023-08-24T09:42:12;98626.47;;;26.34;100.00
26807;BME280;14380;49.910;6.792;2023-08-24T09:44:43;98627.06;;;26.88;100.00
26807;BME280;14380;49.910;6.792;2023-08-24T09:47:10;98616.22;;;26.72;100.00
26807;BME280;14380;49.910;6.792;2023-08-24T09:49:37;98619.47;;;26.61;100.00
26807;BME280;14380;49.910;6.792;2023-08-24T09:52:06;98612.53;;;26.95;100.00
26807;BME280;14380;49.910;6.792;2023-08-24T09:54:36;98612.66;;;27.09;100.00
26807;BME280;14380;49.910;6.792;2023-08-24T09:57:04;98612.25;;;26.68;100.00
26807;BME280;14380;49.910;6.792;2023-08-24T09:59:32;98612.91;;;26.70;100.00
26807;BME280;14380;49.910;6.792;2023-08-24T10:02:02;98614.00;;;26.98;100.00
26807;BME280;14380;49.910;6.792;2023-08-24T10:04:34;98609.59;;;26.97;100.00
26807;BME280;14380;49.910;6.792;2023-08-24T10:07:06;98608.16;;;26.57;100.00
26807;BME280;14380;49.910;6.792;2023-08-24T10:09:38;98610.81;;;26.51;100.00
26807;BME280;14380;49.910;6.792;2023-08-24T10:12:08;98607.88;;;26.67;100.00
26807;BME280;14380;49.910;6.792;2023-08-24T10:14:41;98607.66;;;26.69;100.00
26807;BME280;14380;49.910;6.792;2023-08-24T10:17:13;98612.69;;;26.72;100.00
26807;BME280;14380;49.910;6.792;2023-08-24T10:19:41;98617.03;;;26.66;100.00
26807;BME280;14380;49.910;6.792;2023-08-24T10:22:08;98612.31;;;26.75;100.00
26807;BME280;14380;49.910;6.792;2023-08-24T10:24:36;98604.69;;;26.64;100.00
26807;BME280;14380;49.910;6.792;2023-08-24T10:27:04;98609.13;;;26.50;100.00
26807;BME280;14380;49.910;6.792;2023-08-24T10:29:31;98602.69;;;26.51;100.00
26807;BME280;14380;49.910;6.792;2023-08-24T10:31:58;98605.47;;;26.57;100.00
26807;BME280;14380;49.910;6.792;2023-08-24T10:34:27;98601.13;;;26.41;100.00
26807;BME280;14380;49.910;6.792;2023-08-24T10:36:53;98600.03;;;26.36;100.00
26807;BME280;14380;49.910;6.792;2023-08-24T10:39:26;98595.16;;;25.94;100.00
26807;BME280;14380;49.910;6.792;2023-08-24T10:41:53;98605.88;;;25.88;100.00
26807;BME280;14380;49.910;6.792;2023-08-24T10:44:22;98602.91;;;25.97;100.00
26807;BME280;14380;49.910;6.792;2023-08-24T10:47:11;98590.97;;;25.77;100.00
26807;BME280;14380;49.910;6.792;2023-08-24T10:49:40;98588.19;;;25.55;100.00
26807;BME280;14380;49.910;6.792;2023-08-24T10:52:16;98596.44;;;25.83;100.00
26807;BME280;14380;49.910;6.792;2023-08-24T10:54:43;98595.91;;;25.73;100.00
26807;BME280;14380;49.910;6.792;2023-08-24T10:57:18;98598.06;;;25.63;100.00
26807;BME280;14380;49.910;6.792;2023-08-24T10:59:45;98616.25;;;25.54;100.00
26807;BME280;14380;49.910;6.792;2023-08-24T11:02:18;98600.72;;;25.33;100.00
26807;BME280;14380;49.910;6.792;2023-08-24T11:05:04;98601.97;;;25.22;100.00
26807;BME280;14380;49.910;6.792;2023-08-24T11:07:31;98600.47;;;25.04;100.00
26807;BME280;14380;49.910;6.792;2023-08-24T11:09:58;98588.59;;;25.29;100.00
26807;BME280;14380;49.910;6.792;2023-08-24T11:12:25;98596.88;;;25.27;100.00
26807;BME280;14380;49.910;6.792;2023-08-24T11:14:53;98591.84;;;25.39;100.00
26807;BME280;14380;49.910;6.792;2023-08-24T11:17:24;98581.00;;;25.09;100.00
26807;BME280;14380;49.910;6.792;2023-08-24T11:19:52;98574.69;;;24.78;100.00
26807;BME280;14380;49.910;6.792;2023-08-24T11:22:22;98562.69;;;24.81;100.00
26807;BME280;14380;49.910;6.792;2023-08-24T11:24:49;98570.56;;;24.59;100.00
26807;BME280;14380;49.910;6.792;2023-08-24T11:27:16;98559.53;;;24.23;100.00
26807;BME280;14380;49.910;6.792;2023-08-24T11:29:42;98558.19;;;24.50;100.00
26807;BME280;14380;49.910;6.792;2023-08-24T11:32:09;98556.19;;;24.20;100.00
26807;BME280;14380;49.910;6.792;2023-08-24T11:34:36;98556.59;;;24.32;100.00
26807;BME280;14380;49.910;6.792;2023-08-24T11:37:04;98552.88;;;24.10;100.00
26807;BME280;14380;49.910;6.792;2023-08-24T11:39:32;98553.84;;;23.77;100.00
26807;BME280;14380;49.910;6.792;2023-08-24T11:42:00;98574.31;;;23.95;100.00
26807;BME280;14380;49.910;6.792;2023-08-24T11:44:27;98597.06;;;24.01;100.00
26807;BME280;14380;49.910;6.792;2023-08-24T11:46:56;98607.41;;;23.81;100.00
26807;BME280;14380;49.910;6.792;2023-08-24T11:49:22;98597.84;;;23.70;100.00
26807;BME280;14380;49.910;6.792;2023-08-24T11:51:50;98616.28;;;23.98;100.00
26807;BME280;14380;49.910;6.792;2023-08-24T11:54:16;98620.84;;;23.97;100.00
26807;BME280;14380;49.910;6.792;2023-08-24T11:56:45;98636.16;;;23.97;100.00
26807;BME280;14380;49.910;6.792;2023-08-24T11:59:13;98658.09;;;23.94;100.00
26807;BME280;14380;49.910;6.792;2023-08-24T12:01:40;98698.91;;;23.82;100.00
26807;BME280;14380;49.910;6.792;2023-08-24T12:04:07;98771.22;;;23.54;100.00
26807;BME280;14380;49.910;6.792;2023-08-24T12:06:33;98782.47;;;23.41;100.00
26807;BME280;14380;49.910;6.792;2023-08-24T12:09:00;98805.22;;;23.30;100.00
26807;BME280;14380;49.910;6.792;2023-08-24T12:11:28;98749.81;;;23.69;100.00
26807;BME280;14380;49.910;6.792;2023-08-24T12:13:56;98742.91;;;23.41;100.00
26807;BME280;14380;49.910;6.792;2023-08-24T12:16:23;98757.91;;;23.27;100.00
26807;BME280;14380;49.910;6.792;2023-08-24T12:18:52;98772.66;;;23.15;100.00
26807;BME280;14380;49.910;6.792;2023-08-24T12:21:20;98791.69;;;23.22;100.00
26807;BME280;14380;49.910;6.792;2023-08-24T12:23:56;98802.59;;;23.03;100.00
26807;BME280;14380;49.910;6.792;2023-08-24T12:26:23;98820.09;;;22.91;100.00
26807;BME280;14380;49.910;6.792;2023-08-24T12:28:50;98824.72;;;22.72;100.00
26807;BME280;14380;49.910;6.792;2023-08-24T12:31:20;98823.66;;;23.08;100.00
26807;BME280;14380;49.910;6.792;2023-08-24T12:33:59;98821.50;;;22.69;100.00
26807;BME280;14380;49.910;6.792;2023-08-24T12:36:25;98814.59;;;22.66;100.00
26807;BME280;14380;49.910;6.792;2023-08-24T12:38:52;98807.56;;;22.73;100.00
26807;BME280;14380;49.910;6.792;2023-08-24T12:41:19;98779.91;;;22.63;100.00
26807;BME280;14380;49.910;6.792;2023-08-24T12:43:45;98713.47;;;22.55;100.00
26807;BME280;14380;49.910;6.792;2023-08-24T12:46:12;98629.22;;;22.71;100.00
26807;BME280;14380;49.910;6.792;2023-08-24T12:48:40;98604.50;;;22.93;100.00
26807;BME280;14380;49.910;6.792;2023-08-24T12:51:07;98616.13;;;22.77;100.00
26807;BME280;14380;49.910;6.792;2023-08-24T12:53:33;98603.00;;;22.90;100.00